Time;durP1;ratioP1;P1;durP2;ratioP2;P2;SDS_P1;SDS_P2;PMS_P1;PMS_P2;Temp;Humidity;BMP_temperature;BMP_pressure;BME280_temperature;BME280_humidity;BME280_pressure;Samples;Min_cycle;Max_cycle;Signal;HPM_P1;HPM_P2
2022/03/21 00:02:24;;;;;;;14.48;8.30;;;5.30;44.80;;;;;;5073389;28;20059;-74
2022/03/21 00:04:49;;;;;;;12.93;7.00;;;5.30;44.80;;;;;;5069514;28;20483;-74
2022/03/21 00:07:16;;;;;;;15.15;7.85;;;5.20;44.80;;;;;;5072790;28;20039;-75
2022/03/21 00:09:42;;;;;;;18.08;8.15;;;5.30;45.00;;;;;;5067852;28;20032;-75
2022/03/21 00:12:08;;;;;;;14.07;7.28;;;5.20;45.00;;;;;;5071894;28;20043;-75
2022/03/21 00:14:34;;;;;;;13.50;7.60;;;5.20;45.00;;;;;;5071906;28;20036;-73
2022/03/21 00:16:59;;;;;;;14.73;7.70;;;5.20;45.00;;;;;;5053110;28;20058;-74
2022/03/21 00:19:26;;;;;;;14.05;7.93;;;5.20;45.00;;;;;;5069851;28;20044;-74
2022/03/21 00:21:52;;;;;;;16.95;8.10;;;5.30;45.10;;;;;;5071906;28;20846;-72
2022/03/21 00:24:17;;;;;;;12.75;6.93;;;5.20;45.10;;;;;;5071119;28;20028;-74
2022/03/21 00:26:43;;;;;;;14.52;6.72;;;5.20;45.20;;;;;;5069559;28;20072;-73
2022/03/21 00:29:23;;;;;;;14.50;7.72;;;5.20;45.20;;;;;;5049679;28;20029;-74
2022/03/21 00:31:49;;;;;;;14.18;7.90;;;5.20;45.00;;;;;;5052704;28;20032;-73
2022/03/21 00:34:15;;;;;;;17.90;8.05;;;5.10;44.90;;;;;;5053326;28;20032;-74
2022/03/21 00:36:41;;;;;;;14.68;7.22;;;5.10;45.00;;;;;;5070594;28;20039;-74
2022/03/21 00:39:06;;;;;;;14.18;7.35;;;5.10;44.70;;;;;;5071742;28;20419;-74
2022/03/21 00:41:33;;;;;;;11.43;6.78;;;5.10;45.10;;;;;;5050664;28;20130;-74
2022/03/21 00:43:59;;;;;;;14.48;7.35;;;5.00;44.80;;;;;;5069027;28;20044;-74
2022/03/21 00:46:25;;;;;;;14.18;7.03;;;5.00;45.00;;;;;;5072646;28;20504;-74
2022/03/21 00:48:51;;;;;;;16.23;8.30;;;5.10;44.80;;;;;;5071331;28;20032;-72
2022/03/21 00:51:17;;;;;;;12.75;7.03;;;5.00;44.70;;;;;;5052803;28;20378;-73
2022/03/21 00:53:42;;;;;;;15.43;7.10;;;5.00;44.50;;;;;;5073908;28;20077;-74
2022/03/21 00:56:08;;;;;;;13.65;7.70;;;5.10;44.80;;;;;;5070093;28;20119;-73
2022/03/21 00:58:34;;;;;;;13.82;7.20;;;5.00;44.30;;;;;;5071254;28;20110;-74
2022/03/21 01:01:00;;;;;;;13.52;7.57;;;5.00;44.50;;;;;;5070570;28;20047;-75
2022/03/21 01:03:26;;;;;;;13.57;7.25;;;5.00;44.60;;;;;;5068772;28;20064;-76
2022/03/21 01:05:52;;;;;;;12.40;7.25;;;5.00;44.60;;;;;;5070885;28;20071;-75
2022/03/21 01:08:17;;;;;;;15.20;7.72;;;5.00;44.30;;;;;;5052993;28;20020;-74
2022/03/21 01:10:43;;;;;;;17.60;7.80;;;5.00;44.30;;;;;;5071093;28;20436;-76
2022/03/21 01:13:09;;;;;;;13.15;7.50;;;5.00;44.40;;;;;;5068328;28;20033;-74
2022/03/21 01:15:35;;;;;;;13.32;6.38;;;5.00;44.20;;;;;;5072425;28;20496;-75
2022/03/21 01:18:01;;;;;;;16.55;7.38;;;5.00;43.60;;;;;;5070633;28;20036;-75
2022/03/21 01:20:27;;;;;;;16.05;7.10;;;5.00;44.10;;;;;;5073135;28;20719;-74
2022/03/21 01:22:54;;;;;;;14.43;7.57;;;5.00;44.30;;;;;;5070799;28;20068;-75
2022/03/21 01:25:20;;;;;;;12.65;7.40;;;5.00;44.30;;;;;;5069370;28;20038;-75
2022/03/21 01:27:46;;;;;;;13.38;7.40;;;5.00;44.60;;;;;;5072037;28;20035;-75
2022/03/21 01:30:14;;;;;;;13.25;7.45;;;5.00;44.50;;;;;;5071885;28;20027;-74
2022/03/21 01:32:43;;;;;;;11.30;7.18;;;4.90;44.30;;;;;;5073691;28;20681;-74
2022/03/21 01:35:11;;;;;;;12.98;6.88;;;4.90;44.30;;;;;;5066899;28;20032;-74
2022/03/21 01:37:37;;;;;;;10.30;6.78;;;4.90;44.30;;;;;;5069284;28;20277;-74
2022/03/21 01:40:03;;;;;;;15.05;6.45;;;4.80;44.60;;;;;;5063363;28;21522;-75
2022/03/21 01:42:29;;;;;;;13.27;6.97;;;4.80;44.50;;;;;;5068230;28;20068;-75
2022/03/21 01:44:58;;;;;;;13.52;7.07;;;4.70;44.80;;;;;;5078063;28;20063;-75
2022/03/21 01:47:27;;;;;;;13.60;7.20;;;4.70;44.80;;;;;;5075356;28;20400;-75
2022/03/21 01:49:53;;;;;;;15.45;6.90;;;4.70;44.80;;;;;;5074296;28;20409;-75
2022/03/21 01:52:22;;;;;;;12.20;6.65;;;4.70;44.60;;;;;;5076793;28;20040;-75
2022/03/21 01:57:34;;;;;;;13.57;7.53;;;4.70;44.60;;;;;;5073457;28;20036;-75
2022/03/21 02:00:00;;;;;;;13.23;7.15;;;4.70;44.60;;;;;;5070297;28;21057;-75
2022/03/21 02:02:26;;;;;;;11.38;6.90;;;4.70;44.70;;;;;;5076485;28;20531;-76
2022/03/21 02:04:51;;;;;;;11.85;6.70;;;4.70;44.80;;;;;;5058473;28;20039;-75
2022/03/21 02:07:17;;;;;;;15.70;7.32;;;4.70;44.50;;;;;;5072824;28;20093;-75
2022/03/21 02:09:43;;;;;;;14.77;7.15;;;4.70;44.90;;;;;;5074147;28;20029;-75
2022/03/21 02:12:09;;;;;;;13.38;7.30;;;4.70;44.60;;;;;;5072101;28;20025;-75
2022/03/21 02:14:39;;;;;;;11.48;6.63;;;4.80;44.50;;;;;;5074811;28;20040;-75
2022/03/21 02:17:06;;;;;;;11.70;6.88;;;4.70;44.60;;;;;;5072771;28;20416;-75
2022/03/21 02:19:36;;;;;;;12.82;7.55;;;4.70;44.70;;;;;;5073070;28;20032;-75
2022/03/21 02:22:47;;;;;;;12.73;7.20;;;4.70;44.60;;;;;;5071392;28;20040;-75
2022/03/21 02:25:34;;;;;;;15.75;7.35;;;4.70;44.50;;;;;;5069699;28;20063;-76
2022/03/21 02:28:06;;;;;;;;;;;4.60;44.60;;;;;;5073305;28;20064;-76
2022/03/21 02:30:36;;;;;;;13.75;6.57;;;4.60;44.80;;;;;;5076358;28;19911;-75
2022/03/21 02:33:02;;;;;;;13.10;6.65;;;4.60;44.90;;;;;;5071523;28;20400;-75
2022/03/21 02:35:30;;;;;;;15.10;7.03;;;4.60;45.00;;;;;;5077246;28;20028;-75
2022/03/21 02:37:57;;;;;;;11.60;6.85;;;4.50;45.00;;;;;;5073118;28;20033;-75
2022/03/21 02:40:24;;;;;;;14.30;7.03;;;4.40;45.20;;;;;;5072471;28;20040;-75
2022/03/21 02:42:50;;;;;;;14.02;6.93;;;4.40;45.00;;;;;;5073448;28;20032;-76
2022/03/21 02:45:16;;;;;;;12.02;6.53;;;4.40;45.30;;;;;;5072280;28;20032;-75
2022/03/21 02:47:42;;;;;;;11.48;6.22;;;4.40;45.20;;;;;;5072317;28;20388;-75
2022/03/21 02:50:11;;;;;;;11.52;6.40;;;4.50;45.30;;;;;;5071537;28;20107;-75
2022/03/21 02:52:39;;;;;;;14.32;7.05;;;4.40;45.10;;;;;;5068316;28;20043;-76
2022/03/21 02:55:05;;;;;;;13.30;6.82;;;4.40;45.30;;;;;;5073052;28;20867;-76
2022/03/21 02:57:32;;;;;;;12.45;6.65;;;4.40;45.30;;;;;;5073402;28;20024;-76
2022/03/21 02:59:59;;;;;;;14.02;7.30;;;4.30;45.30;;;;;;5074992;28;20032;-75
2022/03/21 03:02:25;;;;;;;14.35;7.25;;;4.30;45.30;;;;;;5073165;28;20825;-75
2022/03/21 03:04:52;;;;;;;14.60;7.53;;;4.30;45.40;;;;;;5072188;28;20027;-75
2022/03/21 03:07:17;;;;;;;12.35;6.80;;;4.30;45.40;;;;;;5070785;28;20012;-76
2022/03/21 03:09:43;;;;;;;13.07;7.18;;;4.20;45.60;;;;;;5058493;28;20105;-75
2022/03/21 03:12:09;;;;;;;13.70;6.18;;;4.20;45.50;;;;;;5068198;28;20033;-75
2022/03/21 03:14:35;;;;;;;11.50;6.63;;;4.20;45.60;;;;;;5074776;28;20850;-76
2022/03/21 03:17:01;;;;;;;15.88;7.25;;;4.20;45.80;;;;;;5069048;28;20250;-76
2022/03/21 03:19:27;;;;;;;14.80;6.85;;;4.20;45.70;;;;;;5074701;28;20506;-75
2022/03/21 03:21:54;;;;;;;12.35;6.30;;;4.20;45.80;;;;;;5070984;28;20036;-75
2022/03/21 03:24:24;;;;;;;11.40;5.95;;;4.10;45.80;;;;;;5068019;28;20744;-75
2022/03/21 03:26:50;;;;;;;13.77;7.13;;;4.10;45.90;;;;;;5071495;28;20507;-75
2022/03/21 03:29:16;;;;;;;13.07;6.25;;;4.10;45.80;;;;;;5073408;28;20028;-75
2022/03/21 03:31:43;;;;;;;13.55;6.72;;;4.10;45.80;;;;;;5071474;28;20505;-75
2022/03/21 03:34:09;;;;;;;14.40;7.15;;;4.10;45.90;;;;;;5074120;28;20040;-75
2022/03/21 03:36:36;;;;;;;13.20;6.93;;;4.00;45.80;;;;;;5073594;28;20500;-75
2022/03/21 03:39:03;;;;;;;10.23;5.88;;;3.90;46.00;;;;;;5053044;28;20040;-75
2022/03/21 03:41:29;;;;;;;11.38;6.55;;;3.90;46.10;;;;;;5073143;28;20067;-75
2022/03/21 03:43:56;;;;;;;10.70;6.00;;;3.90;46.20;;;;;;5073695;28;20094;-75
2022/03/21 03:46:22;;;;;;;11.70;6.55;;;3.80;46.30;;;;;;5071750;28;20028;-75
2022/03/21 03:48:48;;;;;;;14.02;6.68;;;3.80;46.50;;;;;;5072073;28;20063;-74
2022/03/21 03:51:14;;;;;;;12.13;6.15;;;3.80;46.60;;;;;;5072662;28;20060;-75
2022/03/21 03:53:40;;;;;;;15.30;6.38;;;3.70;46.50;;;;;;5071071;28;20043;-75
2022/03/21 03:56:07;;;;;;;14.05;6.53;;;3.70;46.60;;;;;;5051693;28;20119;-75
2022/03/21 03:58:36;;;;;;;12.13;7.05;;;3.70;46.70;;;;;;5074313;28;20096;-75
2022/03/21 04:01:04;;;;;;;10.75;6.10;;;3.60;46.70;;;;;;5069000;28;20036;-75
2022/03/21 04:03:46;;;;;;;12.73;6.78;;;3.60;46.80;;;;;;5066929;28;20068;-75
2022/03/21 04:06:19;;;;;;;10.32;6.10;;;3.50;47.20;;;;;;5065015;28;20070;-75
2022/03/21 04:08:46;;;;;;;12.07;6.30;;;3.50;47.00;;;;;;5067153;28;20047;-75
2022/03/21 04:11:12;;;;;;;12.57;6.30;;;3.50;46.70;;;;;;5051173;28;20439;-75
2022/03/21 04:13:38;;;;;;;13.65;6.82;;;3.50;46.80;;;;;;5071982;28;20036;-75
2022/03/21 04:16:04;;;;;;;11.35;6.45;;;3.50;47.00;;;;;;5075616;28;20086;-75
2022/03/21 04:18:30;;;;;;;13.80;6.57;;;3.50;46.90;;;;;;5073875;28;20434;-75
2022/03/21 04:20:56;;;;;;;13.73;6.28;;;3.50;46.80;;;;;;5075634;28;20101;-76
2022/03/21 04:23:22;;;;;;;12.15;6.70;;;3.50;46.80;;;;;;5074496;28;20032;-75
2022/03/21 04:25:48;;;;;;;9.52;6.25;;;3.50;46.80;;;;;;5071299;28;20503;-75
2022/03/21 04:28:17;;;;;;;12.13;6.60;;;3.50;47.10;;;;;;5073620;28;20479;-75
2022/03/21 04:30:43;;;;;;;10.88;5.75;;;3.50;46.90;;;;;;5072337;28;20028;-75
2022/03/21 04:33:10;;;;;;;9.85;5.88;;;3.50;46.90;;;;;;5070997;28;20036;-75
2022/03/21 04:35:38;;;;;;;12.05;5.65;;;3.50;47.00;;;;;;5078498;28;20031;-75
2022/03/21 04:38:13;;;;;;;10.85;6.63;;;3.50;46.80;;;;;;5078591;28;20058;-75
2022/03/21 04:40:44;;;;;;;11.30;5.80;;;3.50;46.80;;;;;;5077024;28;20082;-75
2022/03/21 04:43:10;;;;;;;12.88;6.05;;;3.40;47.00;;;;;;5072947;28;20028;-75
2022/03/21 04:45:37;;;;;;;10.43;5.93;;;3.40;47.20;;;;;;5080114;28;20028;-75
2022/03/21 04:48:04;;;;;;;11.10;5.93;;;3.40;47.20;;;;;;5076744;28;20124;-75
2022/03/21 04:50:33;;;;;;;15.15;6.43;;;3.40;47.30;;;;;;5073042;28;20534;-75
2022/03/21 04:52:59;;;;;;;11.60;5.53;;;3.40;47.20;;;;;;5079060;28;20038;-75
2022/03/21 04:55:25;;;;;;;12.13;7.07;;;3.50;47.30;;;;;;5059737;28;20040;-75
2022/03/21 04:57:51;;;;;;;10.55;6.43;;;3.40;47.10;;;;;;5074890;28;20043;-75
2022/03/21 05:00:17;;;;;;;11.40;6.63;;;3.40;47.50;;;;;;5060872;28;20028;-75
2022/03/21 05:02:43;;;;;;;14.45;7.03;;;3.40;47.10;;;;;;5076102;28;20373;-75
2022/03/21 05:05:09;;;;;;;17.67;6.85;;;3.40;47.20;;;;;;5079766;28;20035;-75
2022/03/21 05:07:45;;;;;;;12.48;6.20;;;3.50;47.10;;;;;;5078535;28;20523;-75
2022/03/21 05:10:14;;;;;;;10.27;6.35;;;3.40;47.20;;;;;;5077254;28;20506;-75
2022/03/21 05:12:41;;;;;;;12.65;6.95;;;3.40;47.40;;;;;;5068668;28;20047;-75
2022/03/21 05:15:08;;;;;;;12.30;6.10;;;3.40;47.40;;;;;;5079578;28;20101;-75
2022/03/21 05:17:34;;;;;;;14.40;7.05;;;3.40;47.40;;;;;;5076386;28;20036;-75
2022/03/21 05:20:01;;;;;;;12.82;6.75;;;3.40;47.50;;;;;;5080191;28;20061;-75
2022/03/21 05:22:27;;;;;;;10.05;6.20;;;3.40;47.50;;;;;;5071783;28;20040;-75
2022/03/21 05:35:57;;;;;;;12.95;6.50;;;3.50;47.80;;;;;;5069333;28;20032;-75
2022/03/21 05:38:28;;;;;;;14.75;7.85;;;3.50;47.60;;;;;;5076090;28;20042;-75
2022/03/21 05:40:58;;;;;;;12.88;7.00;;;3.50;47.60;;;;;;5072518;28;20044;-75
2022/03/21 05:43:24;;;;;;;16.58;7.53;;;3.50;47.50;;;;;;5075503;28;20042;-76
2022/03/21 05:45:52;;;;;;;16.08;7.53;;;3.60;47.50;;;;;;5073278;28;20089;-75
2022/03/21 05:51:04;;;;;;;17.98;8.50;;;3.70;47.20;;;;;;5072627;28;20028;-75
2022/03/21 05:53:30;;;;;;;13.13;7.82;;;3.80;46.80;;;;;;5075930;28;20032;-75
2022/03/21 05:55:58;;;;;;;15.32;7.72;;;3.80;46.90;;;;;;5075256;28;20093;-75
2022/03/21 05:58:24;;;;;;;13.73;7.30;;;3.80;46.90;;;;;;5069131;28;20465;-75
2022/03/21 06:00:50;;;;;;;17.65;7.82;;;3.90;46.50;;;;;;5074749;28;20109;-75
2022/03/21 06:03:15;;;;;;;23.27;8.27;;;4.00;46.60;;;;;;5075726;28;20024;-75
2022/03/21 06:05:41;;;;;;;19.90;8.32;;;4.10;46.10;;;;;;5076484;28;20044;-75
2022/03/21 06:08:08;;;;;;;16.40;7.95;;;4.10;46.30;;;;;;5071944;28;20642;-75
2022/03/21 06:10:36;;;;;;;12.40;7.10;;;4.10;46.10;;;;;;5072203;28;20062;-75
2022/03/21 06:13:06;;;;;;;14.05;7.50;;;4.20;45.70;;;;;;5075874;28;20044;-75
2022/03/21 06:15:33;;;;;;;17.27;8.55;;;4.20;46.00;;;;;;5077520;28;20036;-75
2022/03/21 06:17:59;;;;;;;18.90;8.13;;;4.30;46.00;;;;;;5072207;28;20035;-75
2022/03/21 06:20:28;;;;;;;14.98;7.82;;;4.40;46.10;;;;;;5047179;28;20514;-75
2022/03/21 06:22:55;;;;;;;13.15;7.22;;;4.50;45.60;;;;;;5060663;28;20051;-76
2022/03/21 06:25:21;;;;;;;18.00;8.00;;;4.50;44.60;;;;;;5068049;28;20029;-75
2022/03/21 06:27:48;;;;;;;19.38;8.02;;;4.70;44.80;;;;;;5067394;28;20821;-76
2022/03/21 06:30:14;;;;;;;15.45;7.18;;;4.80;44.70;;;;;;5070386;28;20127;-75
2022/03/21 06:32:40;;;;;;;13.57;7.13;;;4.90;44.10;;;;;;5079456;28;20038;-75
2022/03/21 06:35:09;;;;;;;18.05;9.02;;;4.90;43.60;;;;;;5077582;28;20770;-75
2022/03/21 06:37:36;;;;;;;17.83;8.07;;;5.00;43.20;;;;;;5077010;28;20380;-75
2022/03/21 06:40:02;;;;;;;16.33;8.52;;;5.00;43.60;;;;;;5064384;28;20103;-75
2022/03/21 06:42:28;;;;;;;13.70;8.02;;;5.10;43.60;;;;;;5068826;28;20038;-75
2022/03/21 06:44:53;;;;;;;13.93;7.05;;;5.20;42.80;;;;;;5070216;28;20456;-75
2022/03/21 06:47:20;;;;;;;14.75;7.63;;;5.20;43.10;;;;;;5069107;28;20699;-75
2022/03/21 06:49:46;;;;;;;13.85;7.88;;;5.40;42.80;;;;;;5079106;28;20940;-75
2022/03/21 06:52:13;;;;;;;12.40;7.20;;;5.50;42.60;;;;;;5077590;28;20028;-75
2022/03/21 06:54:39;;;;;;;17.98;7.85;;;5.60;42.30;;;;;;5075349;28;20548;-75
2022/03/21 06:57:05;;;;;;;16.23;7.55;;;5.60;42.20;;;;;;5075428;28;20059;-75
2022/03/21 06:59:32;;;;;;;17.05;8.35;;;5.70;41.90;;;;;;5083294;28;20032;-75
2022/03/21 07:01:58;;;;;;;14.43;7.22;;;5.80;42.00;;;;;;5077292;28;20047;-75
2022/03/21 07:04:25;;;;;;;15.57;8.18;;;5.90;42.20;;;;;;5080552;28;20020;-75
2022/03/21 07:06:51;;;;;;;13.75;7.70;;;6.00;41.60;;;;;;5075429;28;20036;-75
2022/03/21 07:09:17;;;;;;;13.65;7.50;;;6.10;41.20;;;;;;5066292;28;20016;-75
2022/03/21 07:11:43;;;;;;;17.02;8.30;;;6.20;40.90;;;;;;5075996;28;20035;-75
2022/03/21 07:14:08;;;;;;;16.05;7.70;;;7.00;40.30;;;;;;5075889;28;20032;-75
2022/03/21 07:16:34;;;;;;;15.95;7.55;;;8.80;36.80;;;;;;5081414;28;20036;-75
2022/03/21 07:19:00;;;;;;;13.20;7.55;;;9.30;35.40;;;;;;5081471;28;20042;-75
2022/03/21 07:21:26;;;;;;;12.77;7.80;;;8.90;35.80;;;;;;5082939;28;20079;-75
2022/03/21 07:23:52;;;;;;;17.35;8.23;;;9.00;36.00;;;;;;5077850;28;20051;-75
2022/03/21 07:26:17;;;;;;;14.43;7.75;;;9.80;34.60;;;;;;5072577;28;20020;-75
2022/03/21 07:28:43;;;;;;;17.55;8.70;;;11.50;32.80;;;;;;5076447;28;20485;-75
2022/03/21 07:31:09;;;;;;;14.07;7.80;;;13.70;29.70;;;;;;5077819;28;20103;-75
2022/03/21 07:33:38;;;;;;;13.68;7.88;;;13.40;29.60;;;;;;5082025;28;20044;-75
2022/03/21 07:36:05;;;;;;;16.92;8.55;;;12.70;29.80;;;;;;5071471;28;20033;-75
2022/03/21 07:38:31;;;;;;;14.27;7.47;;;12.30;30.60;;;;;;5058156;28;20551;-75
2022/03/21 07:40:59;;;;;;;13.75;7.93;;;13.00;29.30;;;;;;5075916;28;20039;-75
2022/03/21 07:43:25;;;;;;;13.18;7.88;;;14.10;28.20;;;;;;5080210;28;20119;-75
2022/03/21 07:48:35;;;;;;;15.63;8.35;;;16.30;26.20;;;;;;5069266;28;20039;-75
2022/03/21 07:51:03;;;;;;;13.23;7.97;;;17.60;25.60;;;;;;5077699;28;20804;-75
2022/03/21 07:53:28;;;;;;;18.85;7.85;;;18.80;24.20;;;;;;5059830;28;20731;-75
2022/03/21 07:55:54;;;;;;;12.75;7.28;;;19.70;23.60;;;;;;5072364;28;20028;-75
2022/03/21 07:58:20;;;;;;;11.15;7.20;;;19.20;23.80;;;;;;5055342;28;20369;-75
2022/03/21 08:00:45;;;;;;;11.80;7.53;;;19.10;23.90;;;;;;5080756;28;20531;-75
2022/03/21 08:03:14;;;;;;;12.30;7.30;;;19.70;23.80;;;;;;5078289;28;20089;-75
2022/03/21 08:05:40;;;;;;;13.63;7.82;;;19.70;22.90;;;;;;5075230;28;20902;-75
2022/03/21 08:08:07;;;;;;;12.65;6.65;;;18.00;23.90;;;;;;5069242;28;20409;-75
2022/03/21 08:10:33;;;;;;;12.23;7.60;;;16.90;25.30;;;;;;5072763;28;20124;-75
2022/03/21 08:12:59;;;;;;;12.70;7.10;;;16.70;25.60;;;;;;5072879;28;20043;-75
2022/03/21 08:15:29;;;;;;;11.77;7.35;;;16.60;25.70;;;;;;5072931;28;20044;-75
2022/03/21 08:17:59;;;;;;;13.98;7.55;;;17.10;25.30;;;;;;5068445;28;20035;-75
2022/03/21 08:20:34;;;;;;;11.82;6.95;;;16.20;25.00;;;;;;5074203;28;20039;-75
2022/03/21 08:23:06;;;;;;;14.27;7.15;;;15.10;25.90;;;;;;5058227;28;20139;-74
2022/03/21 08:25:33;;;;;;;10.73;7.28;;;14.20;26.50;;;;;;5067539;28;20455;-74
2022/03/21 08:28:00;;;;;;;10.65;6.47;;;13.10;28.30;;;;;;5075026;28;20146;-74
2022/03/21 08:30:27;;;;;;;10.43;6.78;;;12.90;28.80;;;;;;5058764;28;20089;-74
2022/03/21 08:32:53;;;;;;;12.45;6.78;;;12.80;28.70;;;;;;5073360;28;20047;-75
2022/03/21 08:35:20;;;;;;;11.38;7.10;;;13.20;28.90;;;;;;5079573;28;20032;-75
2022/03/21 08:37:46;;;;;;;11.20;7.45;;;15.20;27.10;;;;;;5055296;28;20487;-75
2022/03/21 08:40:13;;;;;;;16.25;7.85;;;16.70;25.40;;;;;;5073695;28;20063;-75
2022/03/21 08:42:39;;;;;;;11.82;7.13;;;16.90;24.90;;;;;;5078729;28;20144;-75
2022/03/21 08:45:06;;;;;;;11.70;7.47;;;17.00;24.90;;;;;;5079048;28;20025;-74
2022/03/21 08:47:32;;;;;;;11.50;6.35;;;17.00;24.80;;;;;;5080087;28;20074;-74
2022/03/21 08:49:58;;;;;;;10.68;6.53;;;17.00;24.70;;;;;;5077656;28;20093;-75
2022/03/21 08:52:24;;;;;;;11.23;6.03;;;15.50;26.00;;;;;;5081061;28;20490;-75
2022/03/21 08:54:50;;;;;;;12.10;6.72;;;14.10;26.80;;;;;;5072880;28;20036;-75
2022/03/21 08:57:17;;;;;;;10.20;6.43;;;14.40;27.20;;;;;;5080640;28;20036;-75
2022/03/21 08:59:44;;;;;;;12.07;6.20;;;16.30;25.50;;;;;;5081595;28;20035;-75
2022/03/21 09:02:10;;;;;;;10.85;5.95;;;16.60;25.20;;;;;;5070751;28;20226;-74
2022/03/21 09:04:36;;;;;;;9.40;5.82;;;17.10;24.80;;;;;;5047248;28;20117;-74
2022/03/21 09:07:03;;;;;;;9.20;6.45;;;17.80;24.60;;;;;;5073305;28;20486;-73
2022/03/21 09:09:28;;;;;;;9.15;6.38;;;19.50;22.90;;;;;;5079203;28;20028;-74
2022/03/21 09:11:54;;;;;;;15.68;6.72;;;20.60;22.40;;;;;;5071588;28;20061;-73
2022/03/21 09:14:20;;;;;;;13.20;6.45;;;21.70;22.30;;;;;;5063625;28;20032;-69
2022/03/21 09:16:47;;;;;;;8.90;5.85;;;21.90;21.50;;;;;;5058449;28;20051;-66
2022/03/21 09:19:13;;;;;;;9.38;6.00;;;21.60;21.40;;;;;;5057261;28;20032;-67
2022/03/21 09:21:39;;;;;;;8.82;6.07;;;22.50;21.10;;;;;;5059457;28;20127;-67
2022/03/21 09:24:05;;;;;;;11.88;6.93;;;23.90;20.60;;;;;;5062985;28;20036;-66
2022/03/21 09:26:31;;;;;;;10.93;6.95;;;24.50;20.00;;;;;;5074604;28;20044;-69
2022/03/21 09:29:02;;;;;;;11.27;6.50;;;23.40;20.50;;;;;;5072133;28;20862;-65
2022/03/21 09:31:29;;;;;;;9.77;6.63;;;22.20;21.10;;;;;;5074826;28;20035;-66
2022/03/21 09:33:55;;;;;;;10.27;6.20;;;20.60;22.40;;;;;;5071383;28;20459;-70
2022/03/21 09:36:21;;;;;;;8.27;6.35;;;19.70;22.70;;;;;;5058258;28;20036;-65
2022/03/21 09:38:47;;;;;;;7.25;5.50;;;19.00;23.30;;;;;;5073850;28;20485;-66
2022/03/21 09:41:13;;;;;;;9.27;5.43;;;16.90;24.70;;;;;;5072958;28;20057;-66
2022/03/21 09:43:40;;;;;;;13.07;6.82;;;15.60;25.50;;;;;;5075131;28;20435;-66
2022/03/21 09:46:08;;;;;;;10.30;5.88;;;16.50;25.00;;;;;;5071467;28;20036;-66
2022/03/21 09:48:34;;;;;;;7.00;4.85;;;19.80;22.90;;;;;;5076078;28;20042;-66
2022/03/21 09:51:03;;;;;;;13.15;6.43;;;21.60;21.60;;;;;;5069572;28;20098;-65
2022/03/21 09:53:29;;;;;;;9.02;6.10;;;22.40;21.10;;;;;;5076870;28;20119;-66
2022/03/21 09:55:55;;;;;;;9.75;5.60;;;21.40;21.20;;;;;;5076705;28;20040;-66
2022/03/21 09:58:22;;;;;;;8.73;5.47;;;19.10;22.60;;;;;;5077737;28;20543;-66
2022/03/21 10:00:49;;;;;;;8.30;5.70;;;17.10;24.30;;;;;;5079493;28;20036;-68
2022/03/21 10:03:16;;;;;;;7.68;5.53;;;17.70;24.60;;;;;;5081198;28;20094;-68
2022/03/21 10:05:44;;;;;;;8.32;5.55;;;18.30;23.80;;;;;;5074964;28;20067;-66
2022/03/21 10:08:30;;;;;;;9.52;6.03;;;18.90;24.10;;;;;;5072110;28;20456;-66
2022/03/21 10:11:04;;;;;;;7.87;5.53;;;20.50;22.20;;;;;;5079289;28;20040;-66
2022/03/21 10:13:35;;;;;;;9.55;5.93;;;21.90;21.30;;;;;;5077991;28;20036;-67
2022/03/21 10:16:18;;;;;;;8.02;5.93;;;23.90;20.30;;;;;;5058269;28;20040;-67
2022/03/21 10:18:52;;;;;;;10.45;6.00;;;26.10;19.40;;;;;;5076539;28;20060;-67
2022/03/21 10:21:20;;;;;;;12.38;6.22;;;27.40;19.00;;;;;;5080502;28;20031;-67
2022/03/21 10:24:07;;;;;;;9.32;5.80;;;27.30;18.50;;;;;;5076894;28;20052;-66
2022/03/21 10:26:41;;;;;;;7.53;5.47;;;25.40;19.10;;;;;;5079586;28;20036;-67
2022/03/21 10:29:10;;;;;;;8.65;5.55;;;23.80;19.50;;;;;;5075524;28;20043;-67
2022/03/21 10:31:43;;;;;;;7.70;5.30;;;23.80;20.40;;;;;;5078891;28;20823;-66
2022/03/21 10:34:20;;;;;;;6.53;5.07;;;24.70;19.40;;;;;;5078287;28;20028;-66
2022/03/21 10:37:07;;;;;;;9.52;5.40;;;26.60;18.80;;;;;;5074360;28;20357;-66
2022/03/21 10:39:35;;;;;;;7.72;4.93;;;27.80;18.20;;;;;;5075169;28;20060;-66
2022/03/21 10:42:04;;;;;;;8.98;5.40;;;27.90;18.20;;;;;;5074333;28;20040;-66
2022/03/21 10:44:31;;;;;;;7.70;5.57;;;27.60;18.90;;;;;;5080001;28;20028;-66
2022/03/21 10:47:00;;;;;;;8.93;5.35;;;26.90;18.90;;;;;;5057377;28;20040;-67
2022/03/21 10:49:33;;;;;;;8.32;5.50;;;26.40;18.30;;;;;;5072036;28;20147;-66
2022/03/21 10:51:59;;;;;;;7.57;5.80;;;27.70;18.80;;;;;;5074863;28;20064;-68
2022/03/21 10:54:45;;;;;;;10.68;6.03;;;27.50;18.30;;;;;;5080722;28;20035;-65
2022/03/21 10:57:31;;;;;;;11.18;6.18;;;25.30;19.10;;;;;;5073075;28;20036;-66
2022/03/21 11:00:15;;;;;;;7.63;5.10;;;24.40;19.90;;;;;;5077655;28;20062;-68
2022/03/21 11:03:14;;;;;;;10.02;5.68;;;24.80;19.30;;;;;;5071255;28;20063;-68
2022/03/21 11:05:42;;;;;;;8.70;5.32;;;25.90;18.50;;;;;;5073247;28;20395;-66
2022/03/21 11:08:12;;;;;;;9.15;5.78;;;26.90;18.40;;;;;;5073032;28;20112;-66
2022/03/21 11:10:38;;;;;;;10.05;5.72;;;27.30;18.20;;;;;;5041017;28;20039;-68
2022/03/21 11:13:06;;;;;;;7.57;5.22;;;26.20;18.50;;;;;;5080952;28;20028;-65
2022/03/21 11:15:35;;;;;;;7.68;5.35;;;25.60;19.10;;;;;;5080411;28;20174;-67
2022/03/21 11:18:01;;;;;;;7.10;5.00;;;23.80;19.70;;;;;;5080141;28;20031;-69
2022/03/21 11:20:30;;;;;;;7.88;5.57;;;20.90;21.80;;;;;;5079462;28;20036;-69
2022/03/21 11:22:57;;;;;;;8.98;5.40;;;18.70;23.30;;;;;;5075564;28;20028;-68
2022/03/21 11:25:31;;;;;;;6.63;5.03;;;17.20;24.70;;;;;;5075402;28;20140;-67
2022/03/21 11:28:12;;;;;;;6.57;4.72;;;16.30;24.90;;;;;;5073464;28;20032;-67
2022/03/21 11:31:06;;;;;;;8.18;5.30;;;15.70;25.90;;;;;;5077605;28;20036;-68
2022/03/21 11:33:39;;;;;;;5.38;4.25;;;15.10;25.70;;;;;;5074104;28;20043;-68
2022/03/21 11:36:10;;;;;;;7.43;4.90;;;14.90;26.00;;;;;;5076084;28;20132;-68
2022/03/21 11:38:41;;;;;;;7.35;5.32;;;14.70;26.10;;;;;;5070951;28;20127;-67
2022/03/21 11:41:15;;;;;;;8.57;4.75;;;14.70;26.60;;;;;;5081087;28;20064;-67
2022/03/21 11:43:46;;;;;;;7.45;5.10;;;14.30;26.50;;;;;;5070586;28;20480;-67
2022/03/21 11:46:29;;;;;;;9.88;5.03;;;14.00;27.20;;;;;;5072414;28;20028;-68
2022/03/21 11:48:56;;;;;;;6.78;5.32;;;14.10;26.90;;;;;;5075779;28;20657;-67
2022/03/21 11:51:23;;;;;;;7.22;5.07;;;14.20;26.50;;;;;;5076934;28;20404;-67
2022/03/21 11:53:50;;;;;;;7.15;4.85;;;14.10;26.90;;;;;;5069409;28;20071;-67
2022/03/21 11:56:37;;;;;;;7.72;4.78;;;14.20;26.70;;;;;;5070996;28;20085;-68
2022/03/21 11:59:03;;;;;;;7.50;5.13;;;14.30;26.70;;;;;;5069042;28;20036;-75
2022/03/21 12:01:30;;;;;;;7.00;4.82;;;14.20;26.30;;;;;;5072125;28;20083;-69
2022/03/21 12:04:26;;;;;;;6.90;5.28;;;14.20;26.50;;;;;;5069679;28;20056;-69
2022/03/21 12:06:58;;;;;;;7.47;4.90;;;13.90;26.00;;;;;;5067577;28;20031;-69
2022/03/21 12:09:37;;;;;;;8.32;4.57;;;13.80;26.90;;;;;;5071277;28;20032;-69
2022/03/21 12:12:04;;;;;;;5.80;4.25;;;13.90;27.00;;;;;;5070306;28;20025;-69
2022/03/21 12:14:40;;;;;;;7.18;5.00;;;14.20;27.00;;;;;;5073103;28;20403;-69
2022/03/21 12:17:12;;;;;;;9.10;4.50;;;14.10;26.40;;;;;;5069519;28;20486;-70
2022/03/21 12:22:32;;;;;;;8.70;5.47;;;13.90;27.00;;;;;;5044170;28;20131;-69
2022/03/21 12:24:59;;;;;;;10.40;5.43;;;14.00;26.70;;;;;;5070344;28;20067;-77
2022/03/21 12:27:34;;;;;;;8.30;5.32;;;14.00;26.80;;;;;;5068323;28;20065;-75
2022/03/21 12:30:23;;;;;;;7.35;5.45;;;14.10;26.80;;;;;;5068884;28;20029;-68
2022/03/21 12:32:54;;;;;;;8.02;4.95;;;14.10;26.30;;;;;;5074097;28;20040;-78
2022/03/21 12:35:42;;;;;;;8.90;5.72;;;13.90;26.30;;;;;;5068208;28;20036;-71
2022/03/21 12:38:11;;;;;;;11.38;5.05;;;14.00;26.90;;;;;;5071863;28;20020;-71
2022/03/21 12:40:53;;;;;;;8.13;5.22;;;14.10;27.40;;;;;;5077236;28;20049;-71
2022/03/21 12:43:51;;;;;;;8.48;5.35;;;14.20;26.80;;;;;;5071689;28;20036;-71
2022/03/21 12:46:21;;;;;;;8.68;5.45;;;14.20;26.30;;;;;;5072363;28;20035;-71
2022/03/21 12:48:58;;;;;;;9.32;5.05;;;14.10;27.20;;;;;;5072686;28;20028;-72
2022/03/21 12:51:36;;;;;;;7.95;5.10;;;13.90;27.20;;;;;;5068722;28;20024;-72
2022/03/21 12:54:05;;;;;;;9.07;5.30;;;14.00;27.70;;;;;;5062974;28;20071;-73
2022/03/21 12:56:31;;;;;;;10.52;5.65;;;14.00;27.80;;;;;;5068340;28;20034;-73
2022/03/21 12:59:03;;;;;;;8.45;4.97;;;13.90;27.70;;;;;;5061645;28;20032;-64
2022/03/21 13:01:30;;;;;;;8.13;5.43;;;13.90;27.40;;;;;;5067430;28;20043;-65
2022/03/21 13:12:36;;;;;;;6.82;4.97;;;14.00;28.10;;;;;;5073052;28;20032;-65
2022/03/21 13:15:09;;;;;;;10.02;5.38;;;14.00;27.80;;;;;;5078085;28;20101;-66
2022/03/21 13:17:49;;;;;;;13.88;6.55;;;13.90;27.90;;;;;;5073729;28;20035;-65
2022/03/21 13:20:27;;;;;;;8.38;5.15;;;13.90;27.50;;;;;;5071376;28;20123;-66
2022/03/21 13:22:54;;;;;;;8.68;5.35;;;13.90;27.80;;;;;;5075191;28;20047;-65
2022/03/21 13:25:40;;;;;;;11.13;5.00;;;13.90;27.60;;;;;;5073061;28;20054;-66